sensor_id;sensor_type;location;lat;lon;timestamp;P1;durP1;ratioP1;P2;durP2;ratioP2
25731;SDS011;13585;50.864;4.406;2023-03-22T00:01:37;3.15;;;2.20;;
25731;SDS011;13585;50.864;4.406;2023-03-22T00:04:04;3.63;;;2.08;;
25731;SDS011;13585;50.864;4.406;2023-03-22T00:06:30;2.92;;;2.03;;
25731;SDS011;13585;50.864;4.406;2023-03-22T00:08:59;3.25;;;2.15;;
25731;SDS011;13585;50.864;4.406;2023-03-22T00:11:45;3.47;;;2.33;;
25731;SDS011;13585;50.864;4.406;2023-03-22T00:14:17;2.50;;;2.00;;
25731;SDS011;13585;50.864;4.406;2023-03-22T00:17:28;3.05;;;2.13;;
25731;SDS011;13585;50.864;4.406;2023-03-22T00:20:13;3.15;;;2.10;;
25731;SDS011;13585;50.864;4.406;2023-03-22T00:22:38;3.42;;;2.17;;
25731;SDS011;13585;50.864;4.406;2023-03-22T00:25:04;2.58;;;1.92;;
25731;SDS011;13585;50.864;4.406;2023-03-22T00:27:30;2.50;;;1.90;;
25731;SDS011;13585;50.864;4.406;2023-03-22T00:29:56;3.67;;;2.17;;
25731;SDS011;13585;50.864;4.406;2023-03-22T00:32:22;3.20;;;2.25;;
25731;SDS011;13585;50.864;4.406;2023-03-22T00:34:47;2.95;;;2.20;;
25731;SDS011;13585;50.864;4.406;2023-03-22T00:37:13;3.42;;;2.10;;
25731;SDS011;13585;50.864;4.406;2023-03-22T00:39:40;3.38;;;2.00;;
25731;SDS011;13585;50.864;4.406;2023-03-22T00:42:06;3.15;;;2.20;;
25731;SDS011;13585;50.864;4.406;2023-03-22T00:44:32;3.38;;;1.90;;
25731;SDS011;13585;50.864;4.406;2023-03-22T00:47:00;3.78;;;2.33;;
25731;SDS011;13585;50.864;4.406;2023-03-22T00:49:27;3.88;;;2.10;;
25731;SDS011;13585;50.864;4.406;2023-03-22T00:54:30;2.63;;;1.90;;
25731;SDS011;13585;50.864;4.406;2023-03-22T00:56:56;3.92;;;2.25;;
25731;SDS011;13585;50.864;4.406;2023-03-22T00:59:21;3.65;;;2.35;;
25731;SDS011;13585;50.864;4.406;2023-03-22T01:01:48;4.25;;;2.20;;
25731;SDS011;13585;50.864;4.406;2023-03-22T01:04:13;2.75;;;2.10;;
25731;SDS011;13585;50.864;4.406;2023-03-22T01:06:41;2.80;;;1.98;;
25731;SDS011;13585;50.864;4.406;2023-03-22T01:09:08;3.75;;;2.30;;
25731;SDS011;13585;50.864;4.406;2023-03-22T01:11:39;3.63;;;2.13;;
25731;SDS011;13585;50.864;4.406;2023-03-22T01:14:06;2.72;;;2.10;;
25731;SDS011;13585;50.864;4.406;2023-03-22T01:16:34;4.07;;;2.28;;
25731;SDS011;13585;50.864;4.406;2023-03-22T01:19:00;2.38;;;1.95;;
25731;SDS011;13585;50.864;4.406;2023-03-22T01:21:36;2.92;;;2.00;;
25731;SDS011;13585;50.864;4.406;2023-03-22T01:24:01;2.42;;;2.13;;
25731;SDS011;13585;50.864;4.406;2023-03-22T01:35:17;4.25;;;2.15;;
25731;SDS011;13585;50.864;4.406;2023-03-22T01:37:46;3.08;;;2.13;;
25731;SDS011;13585;50.864;4.406;2023-03-22T01:55:19;3.00;;;1.90;;
25731;SDS011;13585;50.864;4.406;2023-03-22T01:57:46;2.45;;;1.95;;
25731;SDS011;13585;50.864;4.406;2023-03-22T02:00:42;3.58;;;1.65;;
25731;SDS011;13585;50.864;4.406;2023-03-22T02:03:09;2.78;;;1.80;;
25731;SDS011;13585;50.864;4.406;2023-03-22T02:05:38;3.03;;;2.00;;
25731;SDS011;13585;50.864;4.406;2023-03-22T02:08:05;3.25;;;2.03;;
25731;SDS011;13585;50.864;4.406;2023-03-22T02:10:33;4.10;;;2.08;;
25731;SDS011;13585;50.864;4.406;2023-03-22T02:35:32;2.40;;;1.80;;
25731;SDS011;13585;50.864;4.406;2023-03-22T02:49:53;2.40;;;1.52;;
25731;SDS011;13585;50.864;4.406;2023-03-22T02:52:34;3.28;;;1.77;;
25731;SDS011;13585;50.864;4.406;2023-03-22T02:55:05;3.30;;;1.80;;
25731;SDS011;13585;50.864;4.406;2023-03-22T02:57:53;2.53;;;1.50;;
25731;SDS011;13585;50.864;4.406;2023-03-22T03:00:34;3.60;;;1.98;;
25731;SDS011;13585;50.864;4.406;2023-03-22T03:03:04;2.85;;;1.65;;
25731;SDS011;13585;50.864;4.406;2023-03-22T03:05:35;2.85;;;1.92;;
25731;SDS011;13585;50.864;4.406;2023-03-22T03:08:04;3.65;;;1.90;;
25731;SDS011;13585;50.864;4.406;2023-03-22T03:10:32;2.70;;;1.52;;
25731;SDS011;13585;50.864;4.406;2023-03-22T03:12:58;2.47;;;1.63;;
25731;SDS011;13585;50.864;4.406;2023-03-22T03:15:25;4.20;;;1.80;;
25731;SDS011;13585;50.864;4.406;2023-03-22T03:17:53;2.42;;;1.75;;
25731;SDS011;13585;50.864;4.406;2023-03-22T03:29:14;3.97;;;1.80;;
25731;SDS011;13585;50.864;4.406;2023-03-22T03:31:54;2.40;;;1.60;;
25731;SDS011;13585;50.864;4.406;2023-03-22T03:35:02;2.35;;;1.63;;
25731;SDS011;13585;50.864;4.406;2023-03-22T03:37:21;2.35;;;1.60;;
25731;SDS011;13585;50.864;4.406;2023-03-22T03:40:03;1.73;;;1.60;;
25731;SDS011;13585;50.864;4.406;2023-03-22T03:42:36;2.10;;;1.50;;
25731;SDS011;13585;50.864;4.406;2023-03-22T03:45:03;2.92;;;1.58;;
25731;SDS011;13585;50.864;4.406;2023-03-22T03:47:31;2.78;;;1.63;;
25731;SDS011;13585;50.864;4.406;2023-03-22T03:49:58;2.90;;;1.40;;
25731;SDS011;13585;50.864;4.406;2023-03-22T03:52:24;2.72;;;1.73;;
25731;SDS011;13585;50.864;4.406;2023-03-22T03:54:50;3.53;;;1.92;;
25731;SDS011;13585;50.864;4.406;2023-03-22T03:57:16;2.40;;;1.35;;
25731;SDS011;13585;50.864;4.406;2023-03-22T03:59:41;2.65;;;1.60;;
25731;SDS011;13585;50.864;4.406;2023-03-22T04:02:07;2.83;;;1.60;;
25731;SDS011;13585;50.864;4.406;2023-03-22T04:04:33;2.78;;;1.70;;
25731;SDS011;13585;50.864;4.406;2023-03-22T04:06:59;2.35;;;1.50;;
25731;SDS011;13585;50.864;4.406;2023-03-22T04:09:30;2.92;;;1.55;;
25731;SDS011;13585;50.864;4.406;2023-03-22T04:11:58;2.17;;;1.60;;
25731;SDS011;13585;50.864;4.406;2023-03-22T04:14:24;2.40;;;1.70;;
25731;SDS011;13585;50.864;4.406;2023-03-22T04:16:50;2.38;;;1.60;;
25731;SDS011;13585;50.864;4.406;2023-03-22T04:19:17;2.78;;;1.50;;
25731;SDS011;13585;50.864;4.406;2023-03-22T04:21:43;2.28;;;1.38;;
25731;SDS011;13585;50.864;4.406;2023-03-22T04:24:09;3.10;;;1.45;;
25731;SDS011;13585;50.864;4.406;2023-03-22T04:26:36;2.40;;;1.60;;
25731;SDS011;13585;50.864;4.406;2023-03-22T04:29:02;3.55;;;1.67;;
25731;SDS011;13585;50.864;4.406;2023-03-22T04:31:29;2.67;;;1.65;;
25731;SDS011;13585;50.864;4.406;2023-03-22T04:33:55;1.95;;;1.35;;
25731;SDS011;13585;50.864;4.406;2023-03-22T04:36:29;2.10;;;1.65;;
25731;SDS011;13585;50.864;4.406;2023-03-22T04:39:21;2.10;;;1.48;;
25731;SDS011;13585;50.864;4.406;2023-03-22T04:41:52;2.72;;;1.50;;
25731;SDS011;13585;50.864;4.406;2023-03-22T04:44:17;2.33;;;1.63;;
25731;SDS011;13585;50.864;4.406;2023-03-22T04:46:43;3.15;;;1.42;;
25731;SDS011;13585;50.864;4.406;2023-03-22T04:49:12;2.20;;;1.42;;
25731;SDS011;13585;50.864;4.406;2023-03-22T04:51:37;1.63;;;1.23;;
25731;SDS011;13585;50.864;4.406;2023-03-22T04:54:03;2.78;;;1.52;;
25731;SDS011;13585;50.864;4.406;2023-03-22T04:56:29;2.35;;;1.55;;
25731;SDS011;13585;50.864;4.406;2023-03-22T04:58:55;2.60;;;1.40;;
25731;SDS011;13585;50.864;4.406;2023-03-22T05:01:32;3.40;;;1.42;;
25731;SDS011;13585;50.864;4.406;2023-03-22T05:07:03;2.33;;;1.48;;
25731;SDS011;13585;50.864;4.406;2023-03-22T05:09:34;2.25;;;1.20;;
25731;SDS011;13585;50.864;4.406;2023-03-22T05:18:29;1.75;;;1.33;;
25731;SDS011;13585;50.864;4.406;2023-03-22T05:24:51;1.80;;;1.25;;
25731;SDS011;13585;50.864;4.406;2023-03-22T05:27:17;2.42;;;1.50;;
25731;SDS011;13585;50.864;4.406;2023-03-22T05:29:54;2.70;;;1.38;;
25731;SDS011;13585;50.864;4.406;2023-03-22T05:32:19;2.67;;;1.27;;
25731;SDS011;13585;50.864;4.406;2023-03-22T05:34:49;1.80;;;1.30;;
25731;SDS011;13585;50.864;4.406;2023-03-22T06:03:02;2.30;;;1.30;;
25731;SDS011;13585;50.864;4.406;2023-03-22T06:27:44;2.55;;;1.30;;
25731;SDS011;13585;50.864;4.406;2023-03-22T06:39:28;2.05;;;1.10;;
25731;SDS011;13585;50.864;4.406;2023-03-22T06:41:54;1.67;;;1.20;;
25731;SDS011;13585;50.864;4.406;2023-03-22T06:44:23;3.20;;;1.20;;
25731;SDS011;13585;50.864;4.406;2023-03-22T06:46:48;2.85;;;1.30;;
25731;SDS011;13585;50.864;4.406;2023-03-22T06:49:14;1.60;;;1.20;;
25731;SDS011;13585;50.864;4.406;2023-03-22T06:51:43;1.38;;;1.20;;
25731;SDS011;13585;50.864;4.406;2023-03-22T06:54:08;2.70;;;1.25;;
25731;SDS011;13585;50.864;4.406;2023-03-22T06:56:36;2.95;;;1.27;;
25731;SDS011;13585;50.864;4.406;2023-03-22T06:59:02;2.20;;;1.13;;
25731;SDS011;13585;50.864;4.406;2023-03-22T07:01:28;1.95;;;1.13;;
25731;SDS011;13585;50.864;4.406;2023-03-22T07:03:53;2.85;;;1.50;;
25731;SDS011;13585;50.864;4.406;2023-03-22T07:06:19;3.13;;;1.23;;
25731;SDS011;13585;50.864;4.406;2023-03-22T07:08:44;3.03;;;1.27;;
25731;SDS011;13585;50.864;4.406;2023-03-22T07:11:10;2.80;;;1.25;;
25731;SDS011;13585;50.864;4.406;2023-03-22T07:13:35;2.00;;;1.30;;
25731;SDS011;13585;50.864;4.406;2023-03-22T07:16:01;2.22;;;1.10;;
25731;SDS011;13585;50.864;4.406;2023-03-22T07:18:27;1.98;;;1.00;;
25731;SDS011;13585;50.864;4.406;2023-03-22T07:20:54;4.13;;;1.33;;
25731;SDS011;13585;50.864;4.406;2023-03-22T07:23:20;2.17;;;1.10;;
25731;SDS011;13585;50.864;4.406;2023-03-22T07:25:46;1.30;;;1.00;;
25731;SDS011;13585;50.864;4.406;2023-03-22T07:28:13;3.42;;;1.13;;
25731;SDS011;13585;50.864;4.406;2023-03-22T07:30:39;4.30;;;1.45;;
25731;SDS011;13585;50.864;4.406;2023-03-22T07:33:05;1.70;;;1.02;;
25731;SDS011;13585;50.864;4.406;2023-03-22T07:35:33;2.03;;;0.82;;
25731;SDS011;13585;50.864;4.406;2023-03-22T07:38:00;1.90;;;1.05;;
25731;SDS011;13585;50.864;4.406;2023-03-22T07:40:27;2.15;;;1.02;;
25731;SDS011;13585;50.864;4.406;2023-03-22T07:42:53;3.28;;;1.20;;
25731;SDS011;13585;50.864;4.406;2023-03-22T07:45:19;3.83;;;1.20;;
25731;SDS011;13585;50.864;4.406;2023-03-22T07:47:45;1.45;;;1.20;;
25731;SDS011;13585;50.864;4.406;2023-03-22T07:50:12;2.60;;;1.00;;
25731;SDS011;13585;50.864;4.406;2023-03-22T07:52:39;2.58;;;1.00;;
25731;SDS011;13585;50.864;4.406;2023-03-22T07:55:07;2.17;;;1.20;;
25731;SDS011;13585;50.864;4.406;2023-03-22T07:57:34;2.60;;;1.30;;
25731;SDS011;13585;50.864;4.406;2023-03-22T08:00:00;2.53;;;1.35;;
25731;SDS011;13585;50.864;4.406;2023-03-22T08:02:25;2.17;;;1.23;;
25731;SDS011;13585;50.864;4.406;2023-03-22T08:04:51;1.80;;;1.00;;
25731;SDS011;13585;50.864;4.406;2023-03-22T08:07:18;2.15;;;1.20;;
25731;SDS011;13585;50.864;4.406;2023-03-22T08:09:44;2.40;;;1.20;;
25731;SDS011;13585;50.864;4.406;2023-03-22T08:12:10;4.10;;;1.50;;
25731;SDS011;13585;50.864;4.406;2023-03-22T08:14:36;2.75;;;1.17;;
25731;SDS011;13585;50.864;4.406;2023-03-22T08:17:02;2.38;;;1.15;;
25731;SDS011;13585;50.864;4.406;2023-03-22T08:19:29;2.75;;;1.15;;
25731;SDS011;13585;50.864;4.406;2023-03-22T08:21:56;2.60;;;1.20;;
25731;SDS011;13585;50.864;4.406;2023-03-22T08:24:21;2.70;;;1.20;;
25731;SDS011;13585;50.864;4.406;2023-03-22T08:26:47;1.80;;;1.13;;
25731;SDS011;13585;50.864;4.406;2023-03-22T08:29:15;2.10;;;1.08;;
25731;SDS011;13585;50.864;4.406;2023-03-22T08:31:41;3.72;;;1.20;;
25731;SDS011;13585;50.864;4.406;2023-03-22T08:34:19;1.67;;;1.00;;
25731;SDS011;13585;50.864;4.406;2023-03-22T08:36:45;1.73;;;1.10;;
25731;SDS011;13585;50.864;4.406;2023-03-22T08:39:14;2.08;;;1.10;;
25731;SDS011;13585;50.864;4.406;2023-03-22T08:41:41;2.72;;;1.20;;
25731;SDS011;13585;50.864;4.406;2023-03-22T08:44:07;2.03;;;1.02;;
25731;SDS011;13585;50.864;4.406;2023-03-22T08:46:44;2.15;;;1.13;;
25731;SDS011;13585;50.864;4.406;2023-03-22T08:49:10;1.98;;;1.10;;
25731;SDS011;13585;50.864;4.406;2023-03-22T08:51:36;3.00;;;1.00;;
25731;SDS011;13585;50.864;4.406;2023-03-22T08:54:01;3.83;;;1.13;;
25731;SDS011;13585;50.864;4.406;2023-03-22T08:56:32;2.60;;;1.25;;
25731;SDS011;13585;50.864;4.406;2023-03-22T08:59:02;2.63;;;1.35;;
25731;SDS011;13585;50.864;4.406;2023-03-22T09:01:28;2.38;;;1.23;;
25731;SDS011;13585;50.864;4.406;2023-03-22T09:03:55;3.58;;;1.23;;
25731;SDS011;13585;50.864;4.406;2023-03-22T09:06:21;1.50;;;0.88;;
25731;SDS011;13585;50.864;4.406;2023-03-22T09:08:47;2.95;;;1.20;;
25731;SDS011;13585;50.864;4.406;2023-03-22T09:11:16;3.20;;;1.10;;
25731;SDS011;13585;50.864;4.406;2023-03-22T09:13:42;2.53;;;1.10;;
25731;SDS011;13585;50.864;4.406;2023-03-22T09:16:08;4.60;;;1.30;;
25731;SDS011;13585;50.864;4.406;2023-03-22T09:18:37;2.05;;;0.93;;
25731;SDS011;13585;50.864;4.406;2023-03-22T09:21:04;1.60;;;0.98;;
25731;SDS011;13585;50.864;4.406;2023-03-22T09:23:31;4.45;;;1.33;;
25731;SDS011;13585;50.864;4.406;2023-03-22T09:26:01;1.88;;;0.88;;
25731;SDS011;13585;50.864;4.406;2023-03-22T09:28:31;2.88;;;1.27;;
25731;SDS011;13585;50.864;4.406;2023-03-22T09:31:00;2.83;;;1.20;;
25731;SDS011;13585;50.864;4.406;2023-03-22T09:33:49;2.72;;;1.02;;
25731;SDS011;13585;50.864;4.406;2023-03-22T09:36:15;3.35;;;0.95;;
25731;SDS011;13585;50.864;4.406;2023-03-22T09:38:41;1.70;;;0.93;;
25731;SDS011;13585;50.864;4.406;2023-03-22T09:43:42;4.28;;;1.20;;
25731;SDS011;13585;50.864;4.406;2023-03-22T09:46:23;3.20;;;1.17;;
25731;SDS011;13585;50.864;4.406;2023-03-22T09:48:55;2.45;;;1.23;;
25731;SDS011;13585;50.864;4.406;2023-03-22T09:51:34;2.58;;;1.20;;
25731;SDS011;13585;50.864;4.406;2023-03-22T09:54:16;2.78;;;1.23;;
25731;SDS011;13585;50.864;4.406;2023-03-22T10:02:10;1.40;;;1.02;;
25731;SDS011;13585;50.864;4.406;2023-03-22T10:10:26;5.60;;;1.40;;
25731;SDS011;13585;50.864;4.406;2023-03-22T10:12:57;2.90;;;1.20;;
25731;SDS011;13585;50.864;4.406;2023-03-22T10:16:01;3.42;;;1.25;;
25731;SDS011;13585;50.864;4.406;2023-03-22T10:18:40;2.83;;;1.00;;
25731;SDS011;13585;50.864;4.406;2023-03-22T10:21:11;2.58;;;1.10;;
25731;SDS011;13585;50.864;4.406;2023-03-22T10:23:43;4.18;;;1.25;;
25731;SDS011;13585;50.864;4.406;2023-03-22T10:26:23;2.30;;;1.20;;
25731;SDS011;13585;50.864;4.406;2023-03-22T10:29:02;4.38;;;1.15;;
25731;SDS011;13585;50.864;4.406;2023-03-22T10:31:34;3.15;;;1.00;;
25731;SDS011;13585;50.864;4.406;2023-03-22T10:34:04;2.10;;;0.90;;
25731;SDS011;13585;50.864;4.406;2023-03-22T10:36:55;2.80;;;1.17;;
25731;SDS011;13585;50.864;4.406;2023-03-22T10:39:43;2.65;;;1.30;;
25731;SDS011;13585;50.864;4.406;2023-03-22T10:42:17;1.35;;;0.93;;
25731;SDS011;13585;50.864;4.406;2023-03-22T10:44:56;2.65;;;1.20;;
25731;SDS011;13585;50.864;4.406;2023-03-22T10:47:26;4.68;;;1.30;;
25731;SDS011;13585;50.864;4.406;2023-03-22T10:49:57;2.15;;;1.13;;
25731;SDS011;13585;50.864;4.406;2023-03-22T10:52:35;3.20;;;1.20;;
25731;SDS011;13585;50.864;4.406;2023-03-22T10:55:09;3.13;;;1.20;;
25731;SDS011;13585;50.864;4.406;2023-03-22T10:57:37;3.63;;;1.30;;
25731;SDS011;13585;50.864;4.406;2023-03-22T11:00:04;2.97;;;1.00;;
25731;SDS011;13585;50.864;4.406;2023-03-22T11:02:45;1.35;;;0.80;;
25731;SDS011;13585;50.864;4.406;2023-03-22T11:08:56;3.47;;;1.40;;
25731;SDS011;13585;50.864;4.406;2023-03-22T11:17:08;4.30;;;1.40;;
25731;SDS011;13585;50.864;4.406;2023-03-22T11:19:57;3.28;;;1.48;;
25731;SDS011;13585;50.864;4.406;2023-03-22T11:22:32;5.80;;;1.35;;
25731;SDS011;13585;50.864;4.406;2023-03-22T11:24:58;2.60;;;1.20;;
25731;SDS011;13585;50.864;4.406;2023-03-22T11:27:26;2.28;;;1.02;;
25731;SDS011;13585;50.864;4.406;2023-03-22T11:29:56;3.03;;;0.95;;
25731;SDS011;13585;50.864;4.406;2023-03-22T11:35:15;2.40;;;1.23;;
25731;SDS011;13585;50.864;4.406;2023-03-22T11:37:52;1.75;;;0.90;;
25731;SDS011;13585;50.864;4.406;2023-03-22T11:40:20;2.08;;;1.05;;
25731;SDS011;13585;50.864;4.406;2023-03-22T11:42:48;2.92;;;1.33;;
25731;SDS011;13585;50.864;4.406;2023-03-22T11:45:28;3.17;;;1.20;;
25731;SDS011;13585;50.864;4.406;2023-03-22T11:48:04;2.45;;;0.95;;
25731;SDS011;13585;50.864;4.406;2023-03-22T11:50:33;2.40;;;1.30;;
25731;SDS011;13585;50.864;4.406;2023-03-22T11:53:02;4.30;;;1.20;;
25731;SDS011;13585;50.864;4.406;2023-03-22T11:55:30;3.30;;;1.13;;
25731;SDS011;13585;50.864;4.406;2023-03-22T11:58:03;2.70;;;1.20;;
25731;SDS011;13585;50.864;4.406;2023-03-22T12:00:32;2.72;;;1.20;;
25731;SDS011;13585;50.864;4.406;2023-03-22T12:10:03;1.95;;;1.08;;
25731;SDS011;13585;50.864;4.406;2023-03-22T12:13:17;2.53;;;1.20;;
25731;SDS011;13585;50.864;4.406;2023-03-22T12:16:14;3.22;;;1.33;;
25731;SDS011;13585;50.864;4.406;2023-03-22T12:22:21;3.17;;;1.30;;
25731;SDS011;13585;50.864;4.406;2023-03-22T12:25:22;3.00;;;1.08;;
25731;SDS011;13585;50.864;4.406;2023-03-22T12:27:55;2.10;;;1.05;;
25731;SDS011;13585;50.864;4.406;2023-03-22T12:30:24;1.48;;;0.80;;
25731;SDS011;13585;50.864;4.406;2023-03-22T12:33:13;2.00;;;1.00;;
25731;SDS011;13585;50.864;4.406;2023-03-22T12:35:42;1.85;;;1.25;;
25731;SDS011;13585;50.864;4.406;2023-03-22T12:40:46;2.30;;;1.02;;
25731;SDS011;13585;50.864;4.406;2023-03-22T12:43:20;2.40;;;1.30;;
25731;SDS011;13585;50.864;4.406;2023-03-22T12:45:49;3.78;;;1.00;;
25731;SDS011;13585;50.864;4.406;2023-03-22T12:48:35;6.55;;;1.33;;
25731;SDS011;13585;50.864;4.406;2023-03-22T12:51:06;2.92;;;1.13;;
25731;SDS011;13585;50.864;4.406;2023-03-22T12:53:40;2.83;;;1.40;;
25731;SDS011;13585;50.864;4.406;2023-03-22T12:56:27;3.15;;;1.10;;
25731;SDS011;13585;50.864;4.406;2023-03-22T12:59:02;3.90;;;1.25;;
25731;SDS011;13585;50.864;4.406;2023-03-22T13:21:27;3.40;;;1.20;;
25731;SDS011;13585;50.864;4.406;2023-03-22T13:24:00;2.13;;;1.20;;
25731;SDS011;13585;50.864;4.406;2023-03-22T13:26:42;2.22;;;1.30;;
25731;SDS011;13585;50.864;4.406;2023-03-22T13:32:12;3.53;;;1.40;;
25731;SDS011;13585;50.864;4.406;2023-03-22T13:34:53;2.95;;;1.33;;
25731;SDS011;13585;50.864;4.406;2023-03-22T13:39:59;2.08;;;1.20;;
25731;SDS011;13585;50.864;4.406;2023-03-22T13:42:44;2.30;;;1.10;;
25731;SDS011;13585;50.864;4.406;2023-03-22T13:45:26;2.92;;;1.20;;
25731;SDS011;13585;50.864;4.406;2023-03-22T13:48:26;3.45;;;1.42;;
25731;SDS011;13585;50.864;4.406;2023-03-22T13:50:54;4.38;;;1.80;;
25731;SDS011;13585;50.864;4.406;2023-03-22T13:53:28;3.03;;;1.30;;
25731;SDS011;13585;50.864;4.406;2023-03-22T14:01:13;3.38;;;1.60;;
25731;SDS011;13585;50.864;4.406;2023-03-22T14:03:43;3.85;;;1.50;;
25731;SDS011;13585;50.864;4.406;2023-03-22T14:06:24;1.92;;;1.38;;
25731;SDS011;13585;50.864;4.406;2023-03-22T14:08:57;2.75;;;1.48;;
25731;SDS011;13585;50.864;4.406;2023-03-22T14:11:41;4.05;;;1.50;;
25731;SDS011;13585;50.864;4.406;2023-03-22T14:14:22;5.88;;;1.90;;
25731;SDS011;13585;50.864;4.406;2023-03-22T14:17:02;4.38;;;1.70;;
25731;SDS011;13585;50.864;4.406;2023-03-22T14:19:37;5.47;;;1.80;;
25731;SDS011;13585;50.864;4.406;2023-03-22T14:22:06;5.55;;;1.80;;
25731;SDS011;13585;50.864;4.406;2023-03-22T14:24:38;4.13;;;1.58;;
25731;SDS011;13585;50.864;4.406;2023-03-22T14:27:04;3.75;;;1.50;;
25731;SDS011;13585;50.864;4.406;2023-03-22T14:29:41;3.28;;;1.83;;
25731;SDS011;13585;50.864;4.406;2023-03-22T14:32:13;4.60;;;1.48;;
25731;SDS011;13585;50.864;4.406;2023-03-22T14:34:51;3.22;;;1.40;;
25731;SDS011;13585;50.864;4.406;2023-03-22T14:37:24;3.40;;;1.33;;
25731;SDS011;13585;50.864;4.406;2023-03-22T14:42:43;3.10;;;1.73;;
25731;SDS011;13585;50.864;4.406;2023-03-22T14:45:26;3.70;;;1.65;;
25731;SDS011;13585;50.864;4.406;2023-03-22T14:47:52;2.75;;;1.60;;
25731;SDS011;13585;50.864;4.406;2023-03-22T14:50:19;2.95;;;1.25;;
25731;SDS011;13585;50.864;4.406;2023-03-22T14:52:49;3.40;;;1.40;;
25731;SDS011;13585;50.864;4.406;2023-03-22T14:55:17;2.78;;;1.30;;
25731;SDS011;13585;50.864;4.406;2023-03-22T14:57:55;4.35;;;1.33;;
25731;SDS011;13585;50.864;4.406;2023-03-22T15:00:23;3.22;;;1.55;;
25731;SDS011;13585;50.864;4.406;2023-03-22T15:02:55;2.40;;;1.23;;
25731;SDS011;13585;50.864;4.406;2023-03-22T15:05:30;1.92;;;1.20;;
25731;SDS011;13585;50.864;4.406;2023-03-22T15:08:10;2.20;;;1.25;;
25731;SDS011;13585;50.864;4.406;2023-03-22T15:10:48;4.35;;;1.40;;
25731;SDS011;13585;50.864;4.406;2023-03-22T15:13:17;3.72;;;1.50;;
25731;SDS011;13585;50.864;4.406;2023-03-22T15:15:47;3.80;;;1.45;;
25731;SDS011;13585;50.864;4.406;2023-03-22T15:18:17;3.38;;;1.38;;
25731;SDS011;13585;50.864;4.406;2023-03-22T15:20:46;2.13;;;1.20;;
25731;SDS011;13585;50.864;4.406;2023-03-22T15:26:33;3.53;;;1.73;;
25731;SDS011;13585;50.864;4.406;2023-03-22T15:28:59;3.03;;;1.25;;
25731;SDS011;13585;50.864;4.406;2023-03-22T15:31:39;1.67;;;1.13;;
25731;SDS011;13585;50.864;4.406;2023-03-22T15:34:10;2.08;;;1.17;;
25731;SDS011;13585;50.864;4.406;2023-03-22T15:36:58;2.58;;;1.38;;
25731;SDS011;13585;50.864;4.406;2023-03-22T15:39:33;2.78;;;1.20;;
25731;SDS011;13585;50.864;4.406;2023-03-22T15:42:29;2.63;;;1.40;;
25731;SDS011;13585;50.864;4.406;2023-03-22T15:48:09;3.05;;;1.33;;
25731;SDS011;13585;50.864;4.406;2023-03-22T15:53:34;2.55;;;1.33;;
25731;SDS011;13585;50.864;4.406;2023-03-22T15:56:00;2.88;;;1.40;;
25731;SDS011;13585;50.864;4.406;2023-03-22T15:58:27;1.58;;;1.20;;
25731;SDS011;13585;50.864;4.406;2023-03-22T16:03:49;2.17;;;1.38;;
25731;SDS011;13585;50.864;4.406;2023-03-22T16:06:28;3.17;;;1.35;;
25731;SDS011;13585;50.864;4.406;2023-03-22T16:08:54;3.53;;;1.40;;
25731;SDS011;13585;50.864;4.406;2023-03-22T16:19:24;3.65;;;1.10;;
25731;SDS011;13585;50.864;4.406;2023-03-22T16:22:02;2.42;;;1.20;;
25731;SDS011;13585;50.864;4.406;2023-03-22T16:24:49;2.30;;;1.17;;
25731;SDS011;13585;50.864;4.406;2023-03-22T16:35:35;4.03;;;1.20;;
25731;SDS011;13585;50.864;4.406;2023-03-22T16:38:01;2.38;;;1.10;;
25731;SDS011;13585;50.864;4.406;2023-03-22T16:40:27;3.28;;;1.40;;
25731;SDS011;13585;50.864;4.406;2023-03-22T16:45:26;2.33;;;1.10;;
25731;SDS011;13585;50.864;4.406;2023-03-22T16:48:07;1.67;;;1.05;;
25731;SDS011;13585;50.864;4.406;2023-03-22T16:50:38;3.45;;;1.30;;
25731;SDS011;13585;50.864;4.406;2023-03-22T16:53:11;3.28;;;1.30;;
25731;SDS011;13585;50.864;4.406;2023-03-22T16:55:38;1.30;;;1.02;;
25731;SDS011;13585;50.864;4.406;2023-03-22T16:58:04;3.75;;;1.10;;
25731;SDS011;13585;50.864;4.406;2023-03-22T17:00:30;2.80;;;1.40;;
25731;SDS011;13585;50.864;4.406;2023-03-22T17:02:59;4.00;;;1.17;;
25731;SDS011;13585;50.864;4.406;2023-03-22T17:08:13;2.60;;;1.40;;
25731;SDS011;13585;50.864;4.406;2023-03-22T17:10:41;2.70;;;1.20;;
25731;SDS011;13585;50.864;4.406;2023-03-22T17:13:09;2.38;;;1.10;;
25731;SDS011;13585;50.864;4.406;2023-03-22T17:15:40;2.35;;;1.17;;
25731;SDS011;13585;50.864;4.406;2023-03-22T17:18:13;1.90;;;1.33;;
25731;SDS011;13585;50.864;4.406;2023-03-22T17:20:40;2.30;;;1.13;;
25731;SDS011;13585;50.864;4.406;2023-03-22T17:23:09;2.90;;;1.50;;
25731;SDS011;13585;50.864;4.406;2023-03-22T17:25:36;3.38;;;1.00;;
25731;SDS011;13585;50.864;4.406;2023-03-22T17:28:04;1.25;;;0.98;;
25731;SDS011;13585;50.864;4.406;2023-03-22T17:30:31;2.72;;;1.20;;
25731;SDS011;13585;50.864;4.406;2023-03-22T17:32:58;2.78;;;1.52;;
25731;SDS011;13585;50.864;4.406;2023-03-22T17:35:24;3.47;;;1.50;;
25731;SDS011;13585;50.864;4.406;2023-03-22T17:37:54;1.95;;;1.08;;
25731;SDS011;13585;50.864;4.406;2023-03-22T17:40:21;3.50;;;1.38;;
25731;SDS011;13585;50.864;4.406;2023-03-22T17:42:47;2.38;;;1.27;;
25731;SDS011;13585;50.864;4.406;2023-03-22T17:45:30;1.90;;;1.33;;
25731;SDS011;13585;50.864;4.406;2023-03-22T17:50:31;2.65;;;1.30;;
25731;SDS011;13585;50.864;4.406;2023-03-22T17:52:58;2.33;;;1.15;;
25731;SDS011;13585;50.864;4.406;2023-03-22T17:55:41;3.22;;;1.63;;
25731;SDS011;13585;50.864;4.406;2023-03-22T17:58:07;5.22;;;1.42;;
25731;SDS011;13585;50.864;4.406;2023-03-22T18:00:33;3.05;;;1.13;;
25731;SDS011;13585;50.864;4.406;2023-03-22T18:05:34;3.38;;;1.40;;
25731;SDS011;13585;50.864;4.406;2023-03-22T18:10:32;2.28;;;1.13;;
25731;SDS011;13585;50.864;4.406;2023-03-22T18:13:15;2.13;;;1.33;;
25731;SDS011;13585;50.864;4.406;2023-03-22T18:15:43;2.72;;;1.50;;
25731;SDS011;13585;50.864;4.406;2023-03-22T18:18:09;2.53;;;1.40;;
25731;SDS011;13585;50.864;4.406;2023-03-22T18:20:35;2.38;;;1.20;;
25731;SDS011;13585;50.864;4.406;2023-03-22T18:23:00;3.40;;;1.60;;
25731;SDS011;13585;50.864;4.406;2023-03-22T18:25:30;2.35;;;1.40;;
25731;SDS011;13585;50.864;4.406;2023-03-22T18:27:56;3.28;;;1.40;;
25731;SDS011;13585;50.864;4.406;2023-03-22T18:30:34;3.20;;;1.50;;
25731;SDS011;13585;50.864;4.406;2023-03-22T18:33:02;2.97;;;1.70;;
25731;SDS011;13585;50.864;4.406;2023-03-22T18:35:28;3.38;;;1.52;;
25731;SDS011;13585;50.864;4.406;2023-03-22T18:37:54;3.13;;;1.67;;
25731;SDS011;13585;50.864;4.406;2023-03-22T18:40:25;5.57;;;1.48;;
25731;SDS011;13585;50.864;4.406;2023-03-22T18:43:02;3.03;;;1.83;;
25731;SDS011;13585;50.864;4.406;2023-03-22T18:45:28;3.38;;;1.85;;
25731;SDS011;13585;50.864;4.406;2023-03-22T18:48:02;3.88;;;2.03;;
25731;SDS011;13585;50.864;4.406;2023-03-22T18:59:10;4.03;;;2.70;;
25731;SDS011;13585;50.864;4.406;2023-03-22T19:07:15;3.20;;;2.13;;
25731;SDS011;13585;50.864;4.406;2023-03-22T19:09:41;5.40;;;2.28;;
25731;SDS011;13585;50.864;4.406;2023-03-22T19:12:07;5.72;;;2.42;;
25731;SDS011;13585;50.864;4.406;2023-03-22T19:14:33;4.25;;;2.20;;
25731;SDS011;13585;50.864;4.406;2023-03-22T19:16:58;3.75;;;2.45;;
25731;SDS011;13585;50.864;4.406;2023-03-22T19:19:27;4.75;;;2.58;;
25731;SDS011;13585;50.864;4.406;2023-03-22T19:21:56;4.45;;;2.28;;
25731;SDS011;13585;50.864;4.406;2023-03-22T19:24:23;3.95;;;2.17;;
25731;SDS011;13585;50.864;4.406;2023-03-22T19:26:52;5.30;;;2.80;;
25731;SDS011;13585;50.864;4.406;2023-03-22T19:29:19;4.88;;;2.45;;
25731;SDS011;13585;50.864;4.406;2023-03-22T19:31:47;3.63;;;2.03;;
25731;SDS011;13585;50.864;4.406;2023-03-22T19:34:15;7.68;;;2.20;;
25731;SDS011;13585;50.864;4.406;2023-03-22T19:36:41;3.85;;;2.38;;
25731;SDS011;13585;50.864;4.406;2023-03-22T19:39:16;4.88;;;2.15;;